sensor_id;sensor_type;location;lat;lon;timestamp;temperature;humidity
40538;DHT22;27925;41.874;12.526;2023-07-09T00:01:48;29.60;63.40
40538;DHT22;27925;41.874;12.526;2023-07-09T00:04:15;29.60;63.60
40538;DHT22;27925;41.874;12.526;2023-07-09T00:06:41;29.60;63.60
40538;DHT22;27925;41.874;12.526;2023-07-09T00:09:15;29.60;63.80
40538;DHT22;27925;41.874;12.526;2023-07-09T00:11:44;29.50;63.90
40538;DHT22;27925;41.874;12.526;2023-07-09T00:14:12;29.40;64.70
40538;DHT22;27925;41.874;12.526;2023-07-09T00:16:39;29.40;64.30
40538;DHT22;27925;41.874;12.526;2023-07-09T00:19:11;29.30;64.80
40538;DHT22;27925;41.874;12.526;2023-07-09T00:21:39;29.30;65.30
40538;DHT22;27925;41.874;12.526;2023-07-09T00:24:06;29.30;65.50
40538;DHT22;27925;41.874;12.526;2023-07-09T00:26:32;29.30;65.40
40538;DHT22;27925;41.874;12.526;2023-07-09T00:29:01;29.20;65.50
40538;DHT22;27925;41.874;12.526;2023-07-09T00:31:27;29.20;65.80
40538;DHT22;27925;41.874;12.526;2023-07-09T00:33:53;29.10;65.50
40538;DHT22;27925;41.874;12.526;2023-07-09T00:36:29;29.10;65.40
40538;DHT22;27925;41.874;12.526;2023-07-09T00:38:57;29.00;65.50
40538;DHT22;27925;41.874;12.526;2023-07-09T00:41:32;29.00;65.50
40538;DHT22;27925;41.874;12.526;2023-07-09T00:44:18;28.90;66.00
40538;DHT22;27925;41.874;12.526;2023-07-09T00:49:28;28.90;66.10
40538;DHT22;27925;41.874;12.526;2023-07-09T00:51:56;28.80;66.30
40538;DHT22;27925;41.874;12.526;2023-07-09T00:54:35;28.80;66.00
40538;DHT22;27925;41.874;12.526;2023-07-09T00:57:10;28.80;66.00
40538;DHT22;27925;41.874;12.526;2023-07-09T00:59:38;28.80;65.80
40538;DHT22;27925;41.874;12.526;2023-07-09T01:02:06;28.80;65.80
40538;DHT22;27925;41.874;12.526;2023-07-09T01:04:32;28.80;65.90
40538;DHT22;27925;41.874;12.526;2023-07-09T01:06:58;28.90;66.10
40538;DHT22;27925;41.874;12.526;2023-07-09T01:09:25;28.90;66.20
40538;DHT22;27925;41.874;12.526;2023-07-09T01:11:51;28.90;66.10
40538;DHT22;27925;41.874;12.526;2023-07-09T01:14:20;28.90;66.00
40538;DHT22;27925;41.874;12.526;2023-07-09T01:16:50;28.90;66.10
40538;DHT22;27925;41.874;12.526;2023-07-09T01:19:28;28.90;65.90
40538;DHT22;27925;41.874;12.526;2023-07-09T01:21:56;28.80;66.20
40538;DHT22;27925;41.874;12.526;2023-07-09T01:27:11;28.80;66.90
40538;DHT22;27925;41.874;12.526;2023-07-09T01:29:37;28.80;66.30
40538;DHT22;27925;41.874;12.526;2023-07-09T01:32:04;28.70;66.50
40538;DHT22;27925;41.874;12.526;2023-07-09T01:34:32;28.70;66.70
40538;DHT22;27925;41.874;12.526;2023-07-09T01:36:58;28.60;66.80
40538;DHT22;27925;41.874;12.526;2023-07-09T01:39:26;28.60;66.80
40538;DHT22;27925;41.874;12.526;2023-07-09T01:41:54;28.60;66.90
40538;DHT22;27925;41.874;12.526;2023-07-09T01:44:19;28.60;66.80
40538;DHT22;27925;41.874;12.526;2023-07-09T01:46:45;28.60;66.90
40538;DHT22;27925;41.874;12.526;2023-07-09T01:49:11;28.60;66.90
40538;DHT22;27925;41.874;12.526;2023-07-09T01:51:37;28.60;67.00
40538;DHT22;27925;41.874;12.526;2023-07-09T01:54:04;28.60;67.10
40538;DHT22;27925;41.874;12.526;2023-07-09T01:56:30;28.50;67.20
40538;DHT22;27925;41.874;12.526;2023-07-09T01:58:55;28.50;67.20
40538;DHT22;27925;41.874;12.526;2023-07-09T02:01:30;28.50;67.20
40538;DHT22;27925;41.874;12.526;2023-07-09T02:03:55;28.50;67.30
40538;DHT22;27925;41.874;12.526;2023-07-09T02:06:21;28.50;67.20
40538;DHT22;27925;41.874;12.526;2023-07-09T02:08:49;28.50;67.50
40538;DHT22;27925;41.874;12.526;2023-07-09T02:11:15;28.50;67.40
40538;DHT22;27925;41.874;12.526;2023-07-09T02:13:41;28.40;67.50
40538;DHT22;27925;41.874;12.526;2023-07-09T02:16:07;28.40;67.80
40538;DHT22;27925;41.874;12.526;2023-07-09T02:18:34;28.40;67.80
40538;DHT22;27925;41.874;12.526;2023-07-09T02:21:00;28.40;67.70
40538;DHT22;27925;41.874;12.526;2023-07-09T02:23:27;28.40;67.80
40538;DHT22;27925;41.874;12.526;2023-07-09T02:25:53;28.40;68.00
40538;DHT22;27925;41.874;12.526;2023-07-09T02:28:19;28.40;68.00
40538;DHT22;27925;41.874;12.526;2023-07-09T02:30:44;28.40;67.90
40538;DHT22;27925;41.874;12.526;2023-07-09T02:33:10;28.40;68.10
40538;DHT22;27925;41.874;12.526;2023-07-09T02:35:36;28.40;68.10
40538;DHT22;27925;41.874;12.526;2023-07-09T02:38:03;28.40;68.20
40538;DHT22;27925;41.874;12.526;2023-07-09T02:40:29;28.40;68.30
40538;DHT22;27925;41.874;12.526;2023-07-09T02:42:54;28.30;68.50
40538;DHT22;27925;41.874;12.526;2023-07-09T02:45:20;28.30;68.60
40538;DHT22;27925;41.874;12.526;2023-07-09T02:47:47;28.30;68.70
40538;DHT22;27925;41.874;12.526;2023-07-09T02:50:13;28.30;68.90
40538;DHT22;27925;41.874;12.526;2023-07-09T02:52:39;28.30;68.80
40538;DHT22;27925;41.874;12.526;2023-07-09T02:55:07;28.30;69.20
40538;DHT22;27925;41.874;12.526;2023-07-09T02:57:34;28.20;69.10
40538;DHT22;27925;41.874;12.526;2023-07-09T02:59:59;28.20;69.00
40538;DHT22;27925;41.874;12.526;2023-07-09T03:02:25;28.20;69.10
40538;DHT22;27925;41.874;12.526;2023-07-09T03:04:51;28.10;69.30
40538;DHT22;27925;41.874;12.526;2023-07-09T03:07:17;28.10;69.50
40538;DHT22;27925;41.874;12.526;2023-07-09T03:09:43;28.10;70.30
40538;DHT22;27925;41.874;12.526;2023-07-09T03:12:09;28.10;69.50
40538;DHT22;27925;41.874;12.526;2023-07-09T03:14:35;28.10;69.60
40538;DHT22;27925;41.874;12.526;2023-07-09T03:17:01;28.10;69.70
40538;DHT22;27925;41.874;12.526;2023-07-09T03:19:27;28.10;69.70
40538;DHT22;27925;41.874;12.526;2023-07-09T03:21:52;28.10;69.90
40538;DHT22;27925;41.874;12.526;2023-07-09T03:24:18;28.00;69.90
40538;DHT22;27925;41.874;12.526;2023-07-09T03:26:45;28.00;70.00
40538;DHT22;27925;41.874;12.526;2023-07-09T03:29:11;28.00;70.00
40538;DHT22;27925;41.874;12.526;2023-07-09T03:31:37;28.00;70.10
40538;DHT22;27925;41.874;12.526;2023-07-09T03:34:03;28.00;70.10
40538;DHT22;27925;41.874;12.526;2023-07-09T03:36:29;28.00;70.10
40538;DHT22;27925;41.874;12.526;2023-07-09T03:38:55;28.00;70.00
40538;DHT22;27925;41.874;12.526;2023-07-09T03:41:21;28.00;70.20
40538;DHT22;27925;41.874;12.526;2023-07-09T03:43:46;27.90;70.20
40538;DHT22;27925;41.874;12.526;2023-07-09T03:46:15;27.90;70.40
40538;DHT22;27925;41.874;12.526;2023-07-09T03:48:41;27.90;70.50
40538;DHT22;27925;41.874;12.526;2023-07-09T03:51:06;27.80;70.60
40538;DHT22;27925;41.874;12.526;2023-07-09T03:53:32;27.80;71.00
40538;DHT22;27925;41.874;12.526;2023-07-09T03:55:58;27.70;71.00
40538;DHT22;27925;41.874;12.526;2023-07-09T03:58:25;27.70;71.30
40538;DHT22;27925;41.874;12.526;2023-07-09T04:00:51;27.60;71.20
40538;DHT22;27925;41.874;12.526;2023-07-09T04:03:17;27.60;71.30
40538;DHT22;27925;41.874;12.526;2023-07-09T04:05:42;27.70;71.40
40538;DHT22;27925;41.874;12.526;2023-07-09T04:08:08;27.60;71.40
40538;DHT22;27925;41.874;12.526;2023-07-09T04:10:34;27.60;71.30
40538;DHT22;27925;41.874;12.526;2023-07-09T04:12:59;27.60;72.10
40538;DHT22;27925;41.874;12.526;2023-07-09T04:15:26;27.70;71.70
40538;DHT22;27925;41.874;12.526;2023-07-09T04:17:52;27.70;71.60
40538;DHT22;27925;41.874;12.526;2023-07-09T04:20:18;27.80;71.50
40538;DHT22;27925;41.874;12.526;2023-07-09T04:22:44;27.80;71.10
40538;DHT22;27925;41.874;12.526;2023-07-09T04:25:10;27.80;71.20
40538;DHT22;27925;41.874;12.526;2023-07-09T04:27:37;27.80;71.20
40538;DHT22;27925;41.874;12.526;2023-07-09T04:30:05;27.90;71.30
40538;DHT22;27925;41.874;12.526;2023-07-09T04:32:31;27.90;70.90
40538;DHT22;27925;41.874;12.526;2023-07-09T04:34:56;27.90;70.90
40538;DHT22;27925;41.874;12.526;2023-07-09T04:37:23;27.90;71.00
40538;DHT22;27925;41.874;12.526;2023-07-09T04:39:49;27.90;70.90
40538;DHT22;27925;41.874;12.526;2023-07-09T04:42:16;27.90;70.90
40538;DHT22;27925;41.874;12.526;2023-07-09T04:44:43;27.90;70.60
40538;DHT22;27925;41.874;12.526;2023-07-09T04:47:08;27.90;70.70
40538;DHT22;27925;41.874;12.526;2023-07-09T04:49:34;28.00;70.50
40538;DHT22;27925;41.874;12.526;2023-07-09T04:52:00;28.00;70.50
40538;DHT22;27925;41.874;12.526;2023-07-09T04:54:27;28.00;70.30
40538;DHT22;27925;41.874;12.526;2023-07-09T04:56:53;28.00;70.50
40538;DHT22;27925;41.874;12.526;2023-07-09T04:59:19;28.00;70.40
40538;DHT22;27925;41.874;12.526;2023-07-09T05:01:46;28.10;70.00
40538;DHT22;27925;41.874;12.526;2023-07-09T05:04:11;28.00;69.90
40538;DHT22;27925;41.874;12.526;2023-07-09T05:06:37;28.10;70.10
40538;DHT22;27925;41.874;12.526;2023-07-09T05:09:04;28.10;69.80
40538;DHT22;27925;41.874;12.526;2023-07-09T05:11:33;28.20;69.80
40538;DHT22;27925;41.874;12.526;2023-07-09T05:13:58;28.20;69.60
40538;DHT22;27925;41.874;12.526;2023-07-09T05:16:24;28.10;69.80
40538;DHT22;27925;41.874;12.526;2023-07-09T05:18:50;28.20;69.60
40538;DHT22;27925;41.874;12.526;2023-07-09T05:21:15;28.30;69.70
40538;DHT22;27925;41.874;12.526;2023-07-09T05:23:41;28.50;69.20
40538;DHT22;27925;41.874;12.526;2023-07-09T05:26:07;28.70;68.40
40538;DHT22;27925;41.874;12.526;2023-07-09T05:28:34;28.90;67.80
40538;DHT22;27925;41.874;12.526;2023-07-09T05:31:00;29.20;66.70
40538;DHT22;27925;41.874;12.526;2023-07-09T05:33:26;29.30;66.10
40538;DHT22;27925;41.874;12.526;2023-07-09T05:35:51;29.50;66.90
40538;DHT22;27925;41.874;12.526;2023-07-09T05:38:17;29.80;65.30
40538;DHT22;27925;41.874;12.526;2023-07-09T05:40:43;30.10;64.90
40538;DHT22;27925;41.874;12.526;2023-07-09T05:43:10;30.30;64.40
40538;DHT22;27925;41.874;12.526;2023-07-09T05:45:39;30.50;63.70
40538;DHT22;27925;41.874;12.526;2023-07-09T05:48:05;30.60;63.10
40538;DHT22;27925;41.874;12.526;2023-07-09T05:50:33;30.70;62.70
40538;DHT22;27925;41.874;12.526;2023-07-09T05:52:59;30.80;62.30
40538;DHT22;27925;41.874;12.526;2023-07-09T05:55:25;30.90;62.20
40538;DHT22;27925;41.874;12.526;2023-07-09T05:57:52;31.10;61.60
40538;DHT22;27925;41.874;12.526;2023-07-09T06:00:18;31.10;61.20
40538;DHT22;27925;41.874;12.526;2023-07-09T06:02:44;31.20;60.30
40538;DHT22;27925;41.874;12.526;2023-07-09T06:05:10;31.50;60.80
40538;DHT22;27925;41.874;12.526;2023-07-09T06:07:37;31.80;60.10
40538;DHT22;27925;41.874;12.526;2023-07-09T06:10:06;32.00;59.80
40538;DHT22;27925;41.874;12.526;2023-07-09T06:12:33;32.30;59.40
40538;DHT22;27925;41.874;12.526;2023-07-09T06:14:59;32.40;59.00
40538;DHT22;27925;41.874;12.526;2023-07-09T06:17:25;32.70;58.70
40538;DHT22;27925;41.874;12.526;2023-07-09T06:19:50;32.80;58.10
40538;DHT22;27925;41.874;12.526;2023-07-09T06:22:16;32.90;58.00
40538;DHT22;27925;41.874;12.526;2023-07-09T06:24:42;32.90;57.70
40538;DHT22;27925;41.874;12.526;2023-07-09T06:27:12;33.00;57.50
40538;DHT22;27925;41.874;12.526;2023-07-09T06:29:38;33.20;56.70
40538;DHT22;27925;41.874;12.526;2023-07-09T06:32:04;33.50;56.70
40538;DHT22;27925;41.874;12.526;2023-07-09T06:34:30;33.70;56.30
40538;DHT22;27925;41.874;12.526;2023-07-09T06:36:56;33.90;56.10
40538;DHT22;27925;41.874;12.526;2023-07-09T06:39:22;34.00;55.90
40538;DHT22;27925;41.874;12.526;2023-07-09T06:41:48;34.10;55.70
40538;DHT22;27925;41.874;12.526;2023-07-09T06:44:14;34.30;55.70
40538;DHT22;27925;41.874;12.526;2023-07-09T06:46:40;34.40;55.10
40538;DHT22;27925;41.874;12.526;2023-07-09T06:49:06;34.50;55.10
40538;DHT22;27925;41.874;12.526;2023-07-09T06:51:32;34.50;54.80
40538;DHT22;27925;41.874;12.526;2023-07-09T06:53:58;34.80;54.80
40538;DHT22;27925;41.874;12.526;2023-07-09T06:56:24;34.90;54.60
40538;DHT22;27925;41.874;12.526;2023-07-09T06:58:49;34.60;54.30
40538;DHT22;27925;41.874;12.526;2023-07-09T07:01:15;34.60;54.40
40538;DHT22;27925;41.874;12.526;2023-07-09T07:03:41;34.70;54.50
40538;DHT22;27925;41.874;12.526;2023-07-09T07:06:07;34.80;54.50
40538;DHT22;27925;41.874;12.526;2023-07-09T07:08:33;35.00;54.20
40538;DHT22;27925;41.874;12.526;2023-07-09T07:11:03;35.10;54.30
40538;DHT22;27925;41.874;12.526;2023-07-09T07:13:40;35.20;53.80
40538;DHT22;27925;41.874;12.526;2023-07-09T07:16:08;35.30;53.70
40538;DHT22;27925;41.874;12.526;2023-07-09T07:18:35;35.30;53.90
40538;DHT22;27925;41.874;12.526;2023-07-09T07:21:01;35.30;54.20
40538;DHT22;27925;41.874;12.526;2023-07-09T07:23:27;35.30;53.70
40538;DHT22;27925;41.874;12.526;2023-07-09T07:25:53;35.20;53.60
40538;DHT22;27925;41.874;12.526;2023-07-09T07:28:20;35.20;53.70
40538;DHT22;27925;41.874;12.526;2023-07-09T07:30:45;35.00;53.80
40538;DHT22;27925;41.874;12.526;2023-07-09T07:33:13;34.90;54.20
40538;DHT22;27925;41.874;12.526;2023-07-09T07:35:40;34.80;54.40
40538;DHT22;27925;41.874;12.526;2023-07-09T07:38:06;34.90;54.30
40538;DHT22;27925;41.874;12.526;2023-07-09T07:40:32;35.00;54.00
40538;DHT22;27925;41.874;12.526;2023-07-09T07:42:58;35.00;53.70
40538;DHT22;27925;41.874;12.526;2023-07-09T07:45:23;35.00;53.80
40538;DHT22;27925;41.874;12.526;2023-07-09T07:47:49;35.10;53.50
40538;DHT22;27925;41.874;12.526;2023-07-09T07:50:17;35.00;53.60
40538;DHT22;27925;41.874;12.526;2023-07-09T07:52:43;35.00;53.50
40538;DHT22;27925;41.874;12.526;2023-07-09T07:55:09;35.00;53.70
40538;DHT22;27925;41.874;12.526;2023-07-09T07:57:35;35.00;53.80
40538;DHT22;27925;41.874;12.526;2023-07-09T08:00:00;35.00;53.80
40538;DHT22;27925;41.874;12.526;2023-07-09T08:02:26;34.90;53.70
40538;DHT22;27925;41.874;12.526;2023-07-09T08:04:52;34.70;53.60
40538;DHT22;27925;41.874;12.526;2023-07-09T08:07:19;34.60;53.80
40538;DHT22;27925;41.874;12.526;2023-07-09T08:09:46;34.60;53.90
40538;DHT22;27925;41.874;12.526;2023-07-09T08:12:13;34.60;53.90
40538;DHT22;27925;41.874;12.526;2023-07-09T08:14:40;34.60;54.00
40538;DHT22;27925;41.874;12.526;2023-07-09T08:17:06;34.60;54.20
40538;DHT22;27925;41.874;12.526;2023-07-09T08:19:43;34.50;54.20
40538;DHT22;27925;41.874;12.526;2023-07-09T08:22:08;34.40;54.30
40538;DHT22;27925;41.874;12.526;2023-07-09T08:24:34;34.40;54.20
40538;DHT22;27925;41.874;12.526;2023-07-09T08:27:00;34.40;53.90
40538;DHT22;27925;41.874;12.526;2023-07-09T08:29:26;34.20;54.20
40538;DHT22;27925;41.874;12.526;2023-07-09T08:31:52;34.20;54.20
40538;DHT22;27925;41.874;12.526;2023-07-09T08:34:17;34.00;54.20
40538;DHT22;27925;41.874;12.526;2023-07-09T08:36:43;33.90;54.30
40538;DHT22;27925;41.874;12.526;2023-07-09T08:39:10;33.90;54.60
40538;DHT22;27925;41.874;12.526;2023-07-09T08:47:29;33.80;53.50
40538;DHT22;27925;41.874;12.526;2023-07-09T08:50:20;33.90;53.70
40538;DHT22;27925;41.874;12.526;2023-07-09T08:52:47;33.90;55.80
40538;DHT22;27925;41.874;12.526;2023-07-09T08:55:17;33.80;55.10
40538;DHT22;27925;41.874;12.526;2023-07-09T08:57:47;33.70;55.00
40538;DHT22;27925;41.874;12.526;2023-07-09T09:02:55;33.60;53.90
40538;DHT22;27925;41.874;12.526;2023-07-09T09:05:24;33.60;55.10
40538;DHT22;27925;41.874;12.526;2023-07-09T09:07:57;33.60;54.90
40538;DHT22;27925;41.874;12.526;2023-07-09T09:10:36;33.60;53.60
40538;DHT22;27925;41.874;12.526;2023-07-09T09:13:11;33.60;55.10
40538;DHT22;27925;41.874;12.526;2023-07-09T09:15:40;33.60;53.40
40538;DHT22;27925;41.874;12.526;2023-07-09T09:20:44;33.50;53.00
40538;DHT22;27925;41.874;12.526;2023-07-09T09:23:14;33.50;54.40
40538;DHT22;27925;41.874;12.526;2023-07-09T09:25:47;33.50;54.70
40538;DHT22;27925;41.874;12.526;2023-07-09T09:28:15;33.50;53.30
40538;DHT22;27925;41.874;12.526;2023-07-09T09:30:41;33.40;54.60
40538;DHT22;27925;41.874;12.526;2023-07-09T09:33:09;33.40;54.60
40538;DHT22;27925;41.874;12.526;2023-07-09T09:35:38;33.40;54.90
40538;DHT22;27925;41.874;12.526;2023-07-09T09:38:16;33.40;54.90
40538;DHT22;27925;41.874;12.526;2023-07-09T09:40:42;33.40;53.50
40538;DHT22;27925;41.874;12.526;2023-07-09T09:43:18;33.30;54.90
40538;DHT22;27925;41.874;12.526;2023-07-09T09:45:47;33.40;53.70
40538;DHT22;27925;41.874;12.526;2023-07-09T09:48:20;33.50;55.00
40538;DHT22;27925;41.874;12.526;2023-07-09T09:50:47;33.50;53.60
40538;DHT22;27925;41.874;12.526;2023-07-09T09:53:21;33.50;54.80
40538;DHT22;27925;41.874;12.526;2023-07-09T09:55:47;33.60;54.60
40538;DHT22;27925;41.874;12.526;2023-07-09T09:58:15;33.60;54.50
40538;DHT22;27925;41.874;12.526;2023-07-09T10:00:50;33.60;54.60
40538;DHT22;27925;41.874;12.526;2023-07-09T10:03:17;33.70;54.70
40538;DHT22;27925;41.874;12.526;2023-07-09T10:05:47;33.70;54.70
40538;DHT22;27925;41.874;12.526;2023-07-09T10:11:28;33.80;53.20
40538;DHT22;27925;41.874;12.526;2023-07-09T10:13:51;33.80;54.30
40538;DHT22;27925;41.874;12.526;2023-07-09T10:16:26;33.90;54.30
40538;DHT22;27925;41.874;12.526;2023-07-09T10:19:07;33.90;54.20
40538;DHT22;27925;41.874;12.526;2023-07-09T10:21:46;34.00;52.80
40538;DHT22;27925;41.874;12.526;2023-07-09T10:24:37;34.00;53.80
40538;DHT22;27925;41.874;12.526;2023-07-09T10:30:39;34.10;51.70
40538;DHT22;27925;41.874;12.526;2023-07-09T10:33:25;34.10;53.20
40538;DHT22;27925;41.874;12.526;2023-07-09T10:36:52;34.20;51.90
40538;DHT22;27925;41.874;12.526;2023-07-09T10:39:32;34.20;51.70
40538;DHT22;27925;41.874;12.526;2023-07-09T10:41:51;34.30;51.40
40538;DHT22;27925;41.874;12.526;2023-07-09T10:44:23;34.30;52.40
40538;DHT22;27925;41.874;12.526;2023-07-09T10:46:56;34.30;52.00
40538;DHT22;27925;41.874;12.526;2023-07-09T10:49:28;34.30;51.70
40538;DHT22;27925;41.874;12.526;2023-07-09T10:52:04;34.40;52.00
40538;DHT22;27925;41.874;12.526;2023-07-09T10:54:45;34.40;50.40
40538;DHT22;27925;41.874;12.526;2023-07-09T10:57:22;34.40;50.30
40538;DHT22;27925;41.874;12.526;2023-07-09T10:59:50;34.40;51.40
40538;DHT22;27925;41.874;12.526;2023-07-09T11:02:29;34.50;51.10
40538;DHT22;27925;41.874;12.526;2023-07-09T11:07:29;34.70;50.80
40538;DHT22;27925;41.874;12.526;2023-07-09T11:09:58;34.70;50.60
40538;DHT22;27925;41.874;12.526;2023-07-09T11:12:40;34.90;50.30
40538;DHT22;27925;41.874;12.526;2023-07-09T11:15:12;35.00;50.10
40538;DHT22;27925;41.874;12.526;2023-07-09T11:17:44;35.00;49.70
40538;DHT22;27925;41.874;12.526;2023-07-09T11:20:24;35.10;49.50
40538;DHT22;27925;41.874;12.526;2023-07-09T11:22:54;35.20;49.00
40538;DHT22;27925;41.874;12.526;2023-07-09T11:25:40;35.30;48.60
40538;DHT22;27925;41.874;12.526;2023-07-09T11:28:06;35.30;48.10
40538;DHT22;27925;41.874;12.526;2023-07-09T11:30:32;35.30;48.10
40538;DHT22;27925;41.874;12.526;2023-07-09T11:33:03;35.40;48.20
40538;DHT22;27925;41.874;12.526;2023-07-09T11:35:47;35.40;47.90
40538;DHT22;27925;41.874;12.526;2023-07-09T11:38:24;35.50;48.10
40538;DHT22;27925;41.874;12.526;2023-07-09T11:40:52;35.60;47.80
40538;DHT22;27925;41.874;12.526;2023-07-09T11:43:47;35.60;47.50
40538;DHT22;27925;41.874;12.526;2023-07-09T11:46:18;35.70;47.70
40538;DHT22;27925;41.874;12.526;2023-07-09T11:48:48;35.70;47.60
40538;DHT22;27925;41.874;12.526;2023-07-09T11:51:21;35.80;47.10
40538;DHT22;27925;41.874;12.526;2023-07-09T11:53:52;35.80;46.50
40538;DHT22;27925;41.874;12.526;2023-07-09T11:56:20;35.80;46.60
40538;DHT22;27925;41.874;12.526;2023-07-09T11:58:56;35.80;46.60
40538;DHT22;27925;41.874;12.526;2023-07-09T12:01:30;35.80;46.20
40538;DHT22;27925;41.874;12.526;2023-07-09T12:03:57;35.80;46.00
40538;DHT22;27925;41.874;12.526;2023-07-09T12:06:29;35.80;46.10
40538;DHT22;27925;41.874;12.526;2023-07-09T12:08:55;35.90;46.10
40538;DHT22;27925;41.874;12.526;2023-07-09T12:11:26;36.00;46.00
40538;DHT22;27925;41.874;12.526;2023-07-09T12:13:52;36.10;45.60
40538;DHT22;27925;41.874;12.526;2023-07-09T12:16:24;36.10;45.60
40538;DHT22;27925;41.874;12.526;2023-07-09T12:18:50;36.20;45.60
40538;DHT22;27925;41.874;12.526;2023-07-09T12:21:16;36.30;45.70
40538;DHT22;27925;41.874;12.526;2023-07-09T12:23:43;36.40;46.10
40538;DHT22;27925;41.874;12.526;2023-07-09T12:26:17;36.50;46.60
40538;DHT22;27925;41.874;12.526;2023-07-09T12:28:43;36.60;46.90
40538;DHT22;27925;41.874;12.526;2023-07-09T12:31:15;36.60;47.30
40538;DHT22;27925;41.874;12.526;2023-07-09T12:33:53;36.70;47.70
40538;DHT22;27925;41.874;12.526;2023-07-09T12:36:19;36.70;47.70
40538;DHT22;27925;41.874;12.526;2023-07-09T12:38:48;36.70;48.00
40538;DHT22;27925;41.874;12.526;2023-07-09T12:41:40;36.70;47.90
40538;DHT22;27925;41.874;12.526;2023-07-09T12:44:18;36.70;48.00
40538;DHT22;27925;41.874;12.526;2023-07-09T12:46:46;36.70;48.00
40538;DHT22;27925;41.874;12.526;2023-07-09T12:49:36;36.70;47.80
40538;DHT22;27925;41.874;12.526;2023-07-09T12:52:03;36.70;47.90
40538;DHT22;27925;41.874;12.526;2023-07-09T12:54:29;36.70;47.80
40538;DHT22;27925;41.874;12.526;2023-07-09T12:56:56;36.80;47.70
40538;DHT22;27925;41.874;12.526;2023-07-09T12:59:28;36.80;47.70
40538;DHT22;27925;41.874;12.526;2023-07-09T13:04:44;36.70;47.70
40538;DHT22;27925;41.874;12.526;2023-07-09T13:09:52;36.70;47.40
40538;DHT22;27925;41.874;12.526;2023-07-09T13:12:20;36.80;47.40
40538;DHT22;27925;41.874;12.526;2023-07-09T13:14:54;36.80;47.20
40538;DHT22;27925;41.874;12.526;2023-07-09T13:17:20;36.80;47.20
40538;DHT22;27925;41.874;12.526;2023-07-09T13:19:46;36.80;47.20
40538;DHT22;27925;41.874;12.526;2023-07-09T13:22:16;36.80;47.30
40538;DHT22;27925;41.874;12.526;2023-07-09T13:24:42;36.80;47.00
40538;DHT22;27925;41.874;12.526;2023-07-09T13:27:12;36.90;46.90
40538;DHT22;27925;41.874;12.526;2023-07-09T13:29:39;36.90;46.70
40538;DHT22;27925;41.874;12.526;2023-07-09T13:32:12;36.90;46.60
40538;DHT22;27925;41.874;12.526;2023-07-09T13:34:39;36.80;46.50
40538;DHT22;27925;41.874;12.526;2023-07-09T13:37:11;36.80;46.40
40538;DHT22;27925;41.874;12.526;2023-07-09T13:39:37;36.80;46.80
40538;DHT22;27925;41.874;12.526;2023-07-09T13:42:04;36.90;46.40
40538;DHT22;27925;41.874;12.526;2023-07-09T13:44:32;36.90;46.10
40538;DHT22;27925;41.874;12.526;2023-07-09T13:46:58;36.90;46.00
40538;DHT22;27925;41.874;12.526;2023-07-09T13:49:26;37.00;45.90
40538;DHT22;27925;41.874;12.526;2023-07-09T13:51:55;36.90;45.50
40538;DHT22;27925;41.874;12.526;2023-07-09T13:54:28;36.80;45.50
40538;DHT22;27925;41.874;12.526;2023-07-09T13:57:01;36.90;45.30
40538;DHT22;27925;41.874;12.526;2023-07-09T13:59:28;36.90;45.30
40538;DHT22;27925;41.874;12.526;2023-07-09T14:01:55;36.90;45.10
40538;DHT22;27925;41.874;12.526;2023-07-09T14:04:22;36.80;44.80
40538;DHT22;27925;41.874;12.526;2023-07-09T14:06:48;36.80;44.80
40538;DHT22;27925;41.874;12.526;2023-07-09T14:09:15;36.80;44.90
40538;DHT22;27925;41.874;12.526;2023-07-09T14:11:47;36.80;44.60
40538;DHT22;27925;41.874;12.526;2023-07-09T14:14:26;36.90;44.50
40538;DHT22;27925;41.874;12.526;2023-07-09T14:16:56;36.90;44.50
40538;DHT22;27925;41.874;12.526;2023-07-09T14:19:23;37.00;44.60
40538;DHT22;27925;41.874;12.526;2023-07-09T14:21:51;36.90;44.00
40538;DHT22;27925;41.874;12.526;2023-07-09T14:24:23;36.90;44.00
40538;DHT22;27925;41.874;12.526;2023-07-09T14:26:50;36.90;43.80
40538;DHT22;27925;41.874;12.526;2023-07-09T14:29:16;37.00;43.60
40538;DHT22;27925;41.874;12.526;2023-07-09T14:31:42;36.90;43.60
40538;DHT22;27925;41.874;12.526;2023-07-09T14:34:29;36.80;43.40
40538;DHT22;27925;41.874;12.526;2023-07-09T14:36:57;36.80;43.60
40538;DHT22;27925;41.874;12.526;2023-07-09T14:39:25;36.90;43.30
40538;DHT22;27925;41.874;12.526;2023-07-09T14:41:51;36.90;43.40
40538;DHT22;27925;41.874;12.526;2023-07-09T14:44:29;37.00;43.10
40538;DHT22;27925;41.874;12.526;2023-07-09T14:46:59;37.00;43.80
40538;DHT22;27925;41.874;12.526;2023-07-09T14:49:26;37.10;42.80
40538;DHT22;27925;41.874;12.526;2023-07-09T14:51:53;37.00;42.60
40538;DHT22;27925;41.874;12.526;2023-07-09T14:56:47;37.00;42.90
40538;DHT22;27925;41.874;12.526;2023-07-09T14:59:13;37.10;42.70
40538;DHT22;27925;41.874;12.526;2023-07-09T15:01:39;37.10;42.50
40538;DHT22;27925;41.874;12.526;2023-07-09T15:06:53;37.00;42.60
40538;DHT22;27925;41.874;12.526;2023-07-09T15:09:20;36.90;42.40
40538;DHT22;27925;41.874;12.526;2023-07-09T15:11:50;37.00;42.30
40538;DHT22;27925;41.874;12.526;2023-07-09T15:14:16;36.90;42.00
40538;DHT22;27925;41.874;12.526;2023-07-09T15:16:42;36.90;42.00
40538;DHT22;27925;41.874;12.526;2023-07-09T15:19:19;36.90;41.60
40538;DHT22;27925;41.874;12.526;2023-07-09T15:21:48;36.90;41.60
40538;DHT22;27925;41.874;12.526;2023-07-09T15:24:21;36.90;41.40
40538;DHT22;27925;41.874;12.526;2023-07-09T15:26:52;36.90;41.30
40538;DHT22;27925;41.874;12.526;2023-07-09T15:29:19;36.90;41.20
40538;DHT22;27925;41.874;12.526;2023-07-09T15:31:45;36.90;41.10
40538;DHT22;27925;41.874;12.526;2023-07-09T15:34:10;36.80;41.10
40538;DHT22;27925;41.874;12.526;2023-07-09T15:36:37;36.80;41.10
40538;DHT22;27925;41.874;12.526;2023-07-09T15:39:03;36.80;40.90
40538;DHT22;27925;41.874;12.526;2023-07-09T15:41:29;36.80;40.90
40538;DHT22;27925;41.874;12.526;2023-07-09T15:43:54;36.80;40.70
40538;DHT22;27925;41.874;12.526;2023-07-09T15:46:21;36.80;40.70
40538;DHT22;27925;41.874;12.526;2023-07-09T15:48:49;36.80;40.30
40538;DHT22;27925;41.874;12.526;2023-07-09T15:51:15;36.80;40.00
40538;DHT22;27925;41.874;12.526;2023-07-09T15:53:41;36.70;40.00
40538;DHT22;27925;41.874;12.526;2023-07-09T15:56:28;36.70;40.70
40538;DHT22;27925;41.874;12.526;2023-07-09T15:58:56;36.70;40.30
40538;DHT22;27925;41.874;12.526;2023-07-09T16:01:23;36.70;40.10